createdAt,value
2023-03-04T00:00:20.462Z,2.45
2023-03-04T00:01:22.523Z,6.05
2023-03-04T00:02:24.676Z,4.20
2023-03-04T00:03:26.747Z,6.78
2023-03-04T00:04:28.936Z,7.18
2023-03-04T00:05:31.291Z,3.53
2023-03-04T00:06:37.534Z,6.60
2023-03-04T00:07:42.107Z,5.95
2023-03-04T00:08:44.211Z,7.10
2023-03-04T00:09:46.688Z,2.97
2023-03-04T00:10:48.672Z,6.55
2023-03-04T00:11:50.627Z,2.63
2023-03-04T00:12:52.597Z,5.85
2023-03-04T00:13:55.857Z,3.35
2023-03-04T00:14:57.885Z,8.13
2023-03-04T00:15:59.960Z,9.07
2023-03-04T00:17:04.515Z,6.78
2023-03-04T00:18:06.501Z,4.15
2023-03-04T00:19:08.490Z,7.15
2023-03-04T00:20:11.012Z,4.00
2023-03-04T00:21:12.942Z,6.22
2023-03-04T00:22:14.875Z,6.07
2023-03-04T00:23:17.239Z,10.88
2023-03-04T00:24:19.261Z,6.75
2023-03-04T00:25:21.215Z,5.80
2023-03-04T00:26:23.292Z,6.45
2023-03-04T00:27:25.180Z,8.98
2023-03-04T00:28:28.057Z,6.20
2023-03-04T00:29:30.069Z,8.25
2023-03-04T00:30:32.021Z,6.15
2023-03-04T00:31:34.084Z,4.00
2023-03-04T00:32:38.306Z,7.10
2023-03-04T00:33:40.570Z,8.93
2023-03-04T00:34:43.298Z,9.20
2023-03-04T00:35:45.379Z,9.23
2023-03-04T00:36:47.369Z,10.10
2023-03-04T00:37:49.326Z,11.65
2023-03-04T00:38:52.689Z,12.77
2023-03-04T00:39:54.757Z,14.55
2023-03-04T00:40:57.016Z,9.65
2023-03-04T00:41:58.989Z,12.43
2023-03-04T00:43:01.098Z,14.98
2023-03-04T00:44:03.126Z,11.02
2023-03-04T00:45:06.402Z,11.95
2023-03-04T00:46:08.575Z,9.55
2023-03-04T00:47:11.839Z,10.18
2023-03-04T00:48:14.525Z,13.40
2023-03-04T00:49:16.567Z,13.25
2023-03-04T00:50:18.752Z,15.23
2023-03-04T00:51:20.779Z,11.40
2023-03-04T00:52:23.922Z,16.63
2023-03-04T00:53:25.936Z,11.98
2023-03-04T00:54:27.874Z,15.52
2023-03-04T00:55:30.186Z,13.73
2023-03-04T00:56:32.663Z,18.27
2023-03-04T00:57:35.231Z,16.75
2023-03-04T00:58:37.749Z,9.95
2023-03-04T00:59:40.858Z,15.05
2023-03-04T01:00:42.852Z,13.85
2023-03-04T01:01:45.034Z,13.98
2023-03-04T01:02:47.294Z,16.10
2023-03-04T01:03:50.413Z,12.77
2023-03-04T01:04:52.604Z,12.23
2023-03-04T01:05:57.992Z,9.90
2023-03-04T01:07:00.049Z,9.68
2023-03-04T01:08:02.755Z,8.65
2023-03-04T01:09:07.451Z,19.20
2023-03-04T01:10:13.177Z,13.45
2023-03-04T01:11:18.015Z,17.23
2023-03-04T01:12:23.279Z,19.75
2023-03-04T01:13:27.982Z,20.30
2023-03-04T01:14:35.672Z,16.52
2023-03-04T01:15:38.472Z,18.48
2023-03-04T01:16:40.696Z,15.80
2023-03-04T01:17:47.203Z,17.15
2023-03-04T01:19:02.322Z,20.30
2023-03-04T01:20:15.255Z,9.15
2023-03-04T01:21:21.388Z,14.85
2023-03-04T01:22:48.620Z,8.60
2023-03-04T01:24:11.870Z,8.82
2023-03-04T01:25:24.260Z,6.05
2023-03-04T01:26:44.619Z,6.93
2023-03-04T01:27:49.721Z,8.55
2023-03-04T01:28:55.945Z,7.10
2023-03-04T01:29:58.552Z,8.40
2023-03-04T01:31:19.725Z,6.80
2023-03-04T01:32:40.774Z,6.80
2023-03-04T01:33:49.255Z,15.07
2023-03-04T01:34:52.459Z,8.55
2023-03-04T01:36:03.568Z,8.50
2023-03-04T01:37:20.699Z,9.32
2023-03-04T01:38:24.104Z,5.53
2023-03-04T01:39:28.795Z,6.15
2023-03-04T01:40:31.820Z,5.88
2023-03-04T01:41:35.698Z,5.82
2023-03-04T01:42:38.688Z,6.00
2023-03-04T01:43:41.706Z,6.70
2023-03-04T01:44:45.038Z,7.28
2023-03-04T01:45:49.579Z,5.25
2023-03-04T01:46:56.887Z,4.97
2023-03-04T01:47:59.023Z,9.60
2023-03-04T01:49:01.263Z,5.55
2023-03-04T01:50:07.503Z,3.20
2023-03-04T01:51:16.106Z,5.30
2023-03-04T01:52:28.185Z,2.30
2023-03-04T01:53:35.904Z,6.78
2023-03-04T01:54:41.197Z,6.72
2023-03-04T01:55:43.562Z,4.60
2023-03-04T01:57:03.845Z,6.30
2023-03-04T02:00:07.841Z,7.07
2023-03-04T02:04:37.431Z,4.93
2023-03-04T02:06:01.592Z,5.78
2023-03-04T02:07:25.737Z,13.10
2023-03-04T02:14:35.091Z,7.35
2023-03-04T02:36:16.099Z,9.10
2023-03-04T02:39:46.468Z,5.32
2023-03-04T02:40:53.162Z,7.38
2023-03-04T02:41:56.834Z,5.78
2023-03-04T02:43:02.052Z,4.15
2023-03-04T02:44:04.203Z,5.82
2023-03-04T02:45:07.183Z,5.05
2023-03-04T02:46:18.288Z,1.77
2023-03-04T02:47:45.636Z,6.53
2023-03-04T02:48:47.830Z,7.25
2023-03-04T02:49:53.524Z,7.65
2023-03-04T02:50:58.980Z,3.95
2023-03-04T02:52:15.892Z,3.80
2023-03-04T02:53:31.168Z,5.90
2023-03-04T02:54:34.915Z,3.78
2023-03-04T02:55:37.293Z,4.55
2023-03-04T02:56:44.444Z,5.45
2023-03-04T02:57:51.669Z,5.00
2023-03-04T02:58:54.480Z,3.05
2023-03-04T03:00:07.929Z,3.75
2023-03-04T03:01:15.087Z,7.93
2023-03-04T03:02:23.153Z,4.22
2023-03-04T03:03:25.501Z,6.75
2023-03-04T03:04:31.210Z,4.65
2023-03-04T03:05:43.893Z,4.70
2023-03-04T03:06:48.672Z,2.45
2023-03-04T03:07:52.640Z,3.75
2023-03-04T03:08:54.710Z,4.25
2023-03-04T03:10:01.789Z,4.97
2023-03-04T03:11:11.924Z,3.90
2023-03-04T03:12:13.946Z,3.55
2023-03-04T03:13:22.336Z,3.97
2023-03-04T03:15:08.889Z,4.90
2023-03-04T03:16:16.902Z,8.02
2023-03-04T03:17:49.985Z,3.40
2023-03-04T03:19:04.556Z,5.85
2023-03-04T03:20:24.618Z,4.22
2023-03-04T03:21:32.566Z,5.93
2023-03-04T03:22:41.870Z,8.15
2023-03-04T03:24:12.793Z,3.13
2023-03-04T03:25:20.921Z,3.55
2023-03-04T03:26:31.241Z,1.67
2023-03-04T03:27:37.611Z,3.17
2023-03-04T03:28:49.969Z,5.20
2023-03-04T03:29:58.069Z,3.40
2023-03-04T03:31:07.829Z,3.03
2023-03-04T03:32:17.000Z,2.40
2023-03-04T03:33:24.388Z,1.23
2023-03-04T03:34:51.532Z,5.53
2023-03-04T03:35:58.998Z,7.45
2023-03-04T03:37:06.061Z,3.45
2023-03-04T03:38:10.687Z,6.78
2023-03-04T03:39:21.936Z,4.53
2023-03-04T03:40:34.177Z,3.20
2023-03-04T03:41:41.469Z,3.55
2023-03-04T03:42:44.760Z,6.43
2023-03-04T03:45:09.136Z,2.75
2023-03-04T03:46:14.506Z,4.13
2023-03-04T03:47:22.716Z,4.22
2023-03-04T03:48:28.780Z,4.63
2023-03-04T03:49:35.406Z,3.38
2023-03-04T03:51:09.081Z,2.88
2023-03-04T03:52:23.186Z,3.63
2023-03-04T03:53:30.352Z,4.43
2023-03-04T03:54:34.502Z,4.43
2023-03-04T03:55:40.172Z,3.42
2023-03-04T03:56:42.255Z,5.15
2023-03-04T03:57:53.466Z,3.63
2023-03-04T03:59:02.768Z,3.50
2023-03-04T04:00:15.190Z,6.10
2023-03-04T04:01:45.451Z,2.15
2023-03-04T04:02:50.334Z,5.03
2023-03-04T04:04:01.445Z,4.03
2023-03-04T04:05:24.053Z,5.20
2023-03-04T04:06:37.971Z,7.43
2023-03-04T04:07:43.311Z,2.97
2023-03-04T04:09:56.077Z,4.80
2023-03-04T04:12:13.006Z,6.53
2023-03-04T04:15:12.243Z,3.67
2023-03-04T04:16:23.786Z,6.35
2023-03-04T04:17:50.637Z,3.70
2023-03-04T04:19:10.848Z,3.80
2023-03-04T04:20:16.263Z,2.97
2023-03-04T04:21:22.222Z,5.07
2023-03-04T04:22:33.335Z,3.42
2023-03-04T04:23:49.680Z,3.50
2023-03-04T04:25:47.982Z,4.28
2023-03-04T04:26:53.268Z,3.33
2023-03-04T04:27:58.903Z,5.20
2023-03-04T04:29:21.926Z,4.68
2023-03-04T04:30:36.706Z,3.90
2023-03-04T04:31:38.753Z,5.28
2023-03-04T04:32:42.682Z,1.88
2023-03-04T04:33:49.975Z,5.78
2023-03-04T04:34:59.364Z,3.20
2023-03-04T04:36:12.429Z,1.73
2023-03-04T04:37:42.570Z,4.15
2023-03-04T04:40:55.624Z,4.18
2023-03-04T04:42:01.690Z,3.38
2023-03-04T04:43:19.023Z,7.72
2023-03-04T04:44:29.853Z,3.53
2023-03-04T04:45:41.588Z,8.02
2023-03-04T04:47:05.616Z,7.85
2023-03-04T04:48:21.496Z,6.38
2023-03-04T04:49:26.795Z,2.35
2023-03-04T04:53:52.323Z,5.20
2023-03-04T04:55:02.402Z,3.60
2023-03-04T04:56:22.229Z,2.13
2023-03-04T04:57:34.635Z,2.35
2023-03-04T04:58:41.855Z,6.30
2023-03-04T04:59:53.692Z,2.78
2023-03-04T05:01:12.829Z,6.75
2023-03-04T05:02:17.755Z,3.15
2023-03-04T05:03:25.510Z,1.55
2023-03-04T05:04:45.910Z,3.85
2023-03-04T05:05:49.020Z,4.90
2023-03-04T05:06:51.083Z,4.68
2023-03-04T05:07:57.822Z,1.90
2023-03-04T05:09:01.110Z,5.75
2023-03-04T05:10:03.652Z,4.88
2023-03-04T05:11:13.300Z,4.10
2023-03-04T05:12:16.458Z,4.15
2023-03-04T05:13:23.330Z,4.35
2023-03-04T05:14:51.896Z,9.18
2023-03-04T05:16:23.668Z,1.52
2023-03-04T05:17:55.632Z,1.35
2023-03-04T05:19:11.632Z,1.75
2023-03-04T05:20:27.394Z,5.13
2023-03-04T05:21:36.277Z,3.78
2023-03-04T05:22:45.300Z,4.10
2023-03-04T05:23:47.898Z,3.47
2023-03-04T05:24:56.213Z,5.20
2023-03-04T05:26:16.609Z,4.03
2023-03-04T05:28:26.581Z,0.77
2023-03-04T05:29:28.796Z,6.75
2023-03-04T05:30:30.975Z,4.00
2023-03-04T05:31:33.706Z,2.35
2023-03-04T05:32:35.797Z,6.97
2023-03-04T05:33:38.222Z,10.23
2023-03-04T05:34:40.223Z,2.88
2023-03-04T05:35:43.817Z,6.35
2023-03-04T05:36:45.875Z,6.30
2023-03-04T05:37:47.944Z,4.53
2023-03-04T05:38:50.084Z,13.10
2023-03-04T05:39:52.039Z,5.57
2023-03-04T05:41:03.056Z,6.05
2023-03-04T05:42:07.659Z,9.70
2023-03-04T05:43:10.330Z,5.28
2023-03-04T05:44:12.276Z,6.13
2023-03-04T05:45:14.235Z,2.83
2023-03-04T05:46:19.048Z,4.70
2023-03-04T05:47:21.196Z,7.15
2023-03-04T05:48:23.631Z,5.57
2023-03-04T05:49:25.640Z,3.47
2023-03-04T05:50:28.110Z,3.97
2023-03-04T05:51:30.235Z,6.03
2023-03-04T05:52:32.304Z,4.10
2023-03-04T05:58:48.217Z,7.22
2023-03-04T05:59:50.182Z,4.53
2023-03-04T06:00:52.409Z,4.40
2023-03-04T07:18:32.013Z,8.35
2023-03-04T07:19:33.950Z,4.85
2023-03-04T07:20:35.870Z,2.53
2023-03-04T07:21:38.057Z,6.15
2023-03-04T07:22:39.933Z,3.53
2023-03-04T07:23:42.142Z,7.53
2023-03-04T07:24:44.021Z,6.63
2023-03-04T07:25:46.596Z,5.28
2023-03-04T07:26:48.642Z,6.65
2023-03-04T07:27:50.618Z,6.47
2023-03-04T07:28:54.579Z,3.55
2023-03-04T07:29:56.474Z,3.80
2023-03-04T07:31:07.597Z,6.45
2023-03-04T07:32:10.459Z,6.50
2023-03-04T07:33:13.995Z,7.28
2023-03-04T07:34:16.155Z,6.70
2023-03-04T07:35:18.186Z,7.03
2023-03-04T07:36:20.211Z,9.75
2023-03-04T07:37:22.157Z,2.90
2023-03-04T07:38:24.240Z,2.63
2023-03-04T07:39:26.172Z,4.70
2023-03-04T07:40:28.186Z,9.68
2023-03-04T07:41:30.266Z,4.97
2023-03-04T07:42:32.129Z,4.20
2023-03-04T07:43:34.125Z,6.40
2023-03-04T07:44:36.215Z,5.60
2023-03-04T07:45:38.275Z,5.78
2023-03-04T07:46:40.480Z,6.70
2023-03-04T07:47:42.364Z,5.47
2023-03-04T07:48:44.585Z,4.47
2023-03-04T07:49:46.475Z,6.53
2023-03-04T07:50:48.393Z,2.38
2023-03-04T07:51:50.324Z,5.20
2023-03-04T07:52:52.266Z,4.25
2023-03-04T07:53:58.270Z,3.88
2023-03-04T07:55:00.280Z,5.80
2023-03-04T07:56:02.838Z,5.45
2023-03-04T07:57:05.304Z,8.20
2023-03-04T07:58:07.481Z,6.13
2023-03-04T07:59:09.405Z,5.55
2023-03-04T08:00:14.219Z,7.72
2023-03-04T08:01:23.947Z,5.55
2023-03-04T08:02:25.851Z,4.63
2023-03-04T08:03:29.665Z,5.60
2023-03-04T08:04:31.986Z,2.58
2023-03-04T08:05:34.012Z,5.47
2023-03-04T08:06:36.554Z,3.67
2023-03-04T08:07:38.533Z,4.75
2023-03-04T08:08:40.985Z,4.57
2023-03-04T08:09:43.287Z,5.50
2023-03-04T08:10:45.760Z,6.03
2023-03-04T08:11:47.770Z,4.45
2023-03-04T08:12:49.663Z,8.93
2023-03-04T08:13:54.288Z,7.47
2023-03-04T08:14:56.272Z,6.97
2023-03-04T08:15:59.511Z,6.78
2023-03-04T08:17:01.606Z,5.18
2023-03-04T08:18:03.628Z,8.07
2023-03-04T08:19:06.501Z,7.03
2023-03-04T08:20:08.978Z,7.10
2023-03-04T08:21:12.527Z,6.72
2023-03-04T08:22:14.672Z,2.97
2023-03-04T08:23:16.750Z,7.68
2023-03-04T08:24:18.790Z,5.57
2023-03-04T08:25:20.665Z,1.63
2023-03-04T08:26:31.124Z,2.55
2023-03-04T08:27:33.104Z,4.22
2023-03-04T08:28:35.819Z,4.28
2023-03-04T08:29:56.849Z,5.05
2023-03-04T08:31:20.198Z,1.42
2023-03-04T08:32:23.797Z,3.33
2023-03-04T08:33:25.857Z,7.47
2023-03-04T08:34:29.205Z,2.85
2023-03-04T08:35:31.950Z,2.95
2023-03-04T08:36:34.423Z,4.05
2023-03-04T08:37:36.483Z,1.98
2023-03-04T08:38:38.772Z,6.50
2023-03-04T08:39:40.782Z,7.95
2023-03-04T08:40:42.773Z,3.05
2023-03-04T08:41:45.591Z,8.75
2023-03-04T08:42:47.842Z,5.35
2023-03-04T08:43:49.710Z,4.88
2023-03-04T08:44:51.597Z,5.20
2023-03-04T08:45:54.918Z,4.40
2023-03-04T08:46:56.873Z,3.65
2023-03-04T08:47:58.924Z,4.85
2023-03-04T08:49:00.813Z,5.30
2023-03-04T08:50:05.139Z,3.78
2023-03-04T08:51:12.637Z,6.22
2023-03-04T08:52:14.560Z,6.95
2023-03-04T08:53:18.398Z,8.32
2023-03-04T08:54:20.482Z,3.05
2023-03-04T08:55:22.398Z,6.30
2023-03-04T08:56:24.901Z,6.88
2023-03-04T08:57:27.154Z,5.53
2023-03-04T08:58:29.165Z,3.80
2023-03-04T08:59:31.570Z,3.45
2023-03-04T09:00:38.208Z,5.22
2023-03-04T09:01:42.290Z,7.60
2023-03-04T09:02:44.341Z,6.72
2023-03-04T09:03:46.412Z,12.90
2023-03-04T09:04:48.375Z,6.32
2023-03-04T09:05:51.202Z,6.60
2023-03-04T09:06:54.111Z,2.95
2023-03-04T09:07:56.047Z,5.22
2023-03-04T09:08:57.978Z,8.02
2023-03-04T09:09:59.914Z,5.57
2023-03-04T09:11:02.092Z,4.18
2023-03-04T09:12:04.165Z,14.88
2023-03-04T09:13:06.518Z,6.00
2023-03-04T09:14:08.460Z,5.65
2023-03-04T09:15:12.053Z,5.50
2023-03-04T09:16:15.437Z,5.57
2023-03-04T09:17:17.326Z,4.32
2023-03-04T09:18:20.632Z,3.53
2023-03-04T09:19:23.022Z,3.97
2023-03-04T09:20:25.046Z,9.00
2023-03-04T09:21:27.126Z,3.97
2023-03-04T09:22:29.213Z,2.10
2023-03-04T09:23:31.087Z,6.70
2023-03-04T09:24:32.980Z,5.85
2023-03-04T09:25:34.939Z,3.25
2023-03-04T09:26:36.833Z,4.03
2023-03-04T09:27:38.729Z,3.63
2023-03-04T09:28:40.592Z,4.78
2023-03-04T09:29:44.522Z,1.30
2023-03-04T09:30:46.805Z,3.97
2023-03-04T09:31:48.831Z,5.72
2023-03-04T09:32:50.920Z,2.83
2023-03-04T09:33:56.050Z,7.53
2023-03-04T09:35:00.942Z,2.63
2023-03-04T09:36:03.094Z,3.47
2023-03-04T09:37:05.054Z,1.83
2023-03-04T09:38:06.991Z,1.48
2023-03-04T09:39:08.954Z,3.38
2023-03-04T09:40:19.243Z,0.70
2023-03-04T09:41:30.265Z,3.13
2023-03-04T09:42:46.384Z,3.72
2023-03-04T09:43:50.680Z,3.33
2023-03-04T09:44:54.750Z,3.90
2023-03-04T09:46:04.136Z,3.25
2023-03-04T09:47:15.722Z,3.22
2023-03-04T09:48:22.145Z,2.50
2023-03-04T09:49:25.056Z,2.42
2023-03-04T09:50:31.885Z,2.33
2023-03-04T09:51:51.415Z,3.50
2023-03-04T09:53:07.674Z,1.55
2023-03-04T09:54:18.512Z,2.25
2023-03-04T09:55:25.658Z,5.95
2023-03-04T09:56:28.427Z,1.90
2023-03-04T09:57:37.226Z,5.22
2023-03-04T09:58:49.109Z,2.53
2023-03-04T10:00:20.067Z,1.42
2023-03-04T10:01:44.878Z,1.63
2023-03-04T10:03:10.042Z,2.03
2023-03-04T10:04:12.389Z,1.48
2023-03-04T10:05:21.715Z,2.40
2023-03-04T10:06:24.338Z,2.75
2023-03-04T10:07:38.055Z,6.15
2023-03-04T10:09:00.440Z,7.30
2023-03-04T10:10:19.227Z,3.63
2023-03-04T10:11:27.826Z,2.92
2023-03-04T10:12:33.055Z,6.45
2023-03-04T10:13:47.163Z,3.00
2023-03-04T10:14:51.256Z,4.05
2023-03-04T10:15:54.434Z,5.50
2023-03-04T10:17:16.893Z,1.65
2023-03-04T10:18:27.808Z,5.32
2023-03-04T10:19:45.824Z,1.55
2023-03-04T10:20:59.395Z,1.85
2023-03-04T10:22:11.065Z,3.58
2023-03-04T10:23:19.570Z,1.75
2023-03-04T10:24:27.536Z,1.65
2023-03-04T10:25:31.934Z,2.40
2023-03-04T10:26:34.240Z,1.17
2023-03-04T10:27:36.278Z,2.60
2023-03-04T10:28:38.710Z,3.80
2023-03-04T10:29:40.881Z,6.70
2023-03-04T10:30:49.025Z,5.22
2023-03-04T10:31:51.745Z,1.73
2023-03-04T10:32:53.852Z,16.08
2023-03-04T10:33:58.242Z,4.85
2023-03-04T10:35:00.112Z,3.17
2023-03-04T10:36:04.288Z,1.30
2023-03-04T10:37:08.783Z,3.53
2023-03-04T10:38:13.278Z,4.88
2023-03-04T10:39:33.640Z,6.10
2023-03-04T10:40:42.029Z,2.85
2023-03-04T10:41:53.438Z,3.25
2023-03-04T10:42:56.175Z,3.60
2023-03-04T10:44:04.235Z,3.72
2023-03-04T10:45:24.103Z,7.40
2023-03-04T10:46:26.767Z,6.05
2023-03-04T10:47:31.392Z,3.33
2023-03-04T10:48:33.309Z,2.97
2023-03-04T10:49:50.651Z,4.55
2023-03-04T10:50:52.668Z,2.42
2023-03-04T10:52:31.479Z,3.35
2023-03-04T10:53:42.308Z,2.15
2023-03-04T10:54:53.487Z,3.03
2023-03-04T10:57:04.824Z,3.00
2023-03-04T10:58:07.550Z,3.73
2023-03-04T10:59:28.131Z,3.55
2023-03-04T11:00:35.131Z,6.15
2023-03-04T11:01:37.504Z,3.90
2023-03-04T13:02:37.066Z,4.50
2023-03-04T13:04:07.879Z,2.28
2023-03-04T13:12:27.987Z,6.07
2023-03-04T13:13:42.550Z,3.60
2023-03-04T13:16:32.778Z,8.45
2023-03-04T13:17:45.765Z,4.15
2023-03-04T13:18:49.462Z,3.60
2023-03-04T13:19:58.664Z,4.00
2023-03-04T13:21:13.522Z,9.25
2023-03-04T13:22:28.930Z,5.53
2023-03-04T13:23:32.341Z,8.93
2023-03-04T13:24:51.008Z,5.75
2023-03-04T13:25:56.012Z,3.40
2023-03-04T13:26:58.204Z,4.20
2023-03-04T13:28:03.225Z,5.05
2023-03-04T13:29:32.172Z,4.05
2023-03-04T13:30:40.216Z,5.65
2023-03-04T13:32:31.409Z,2.08
2023-03-04T13:33:36.379Z,11.10
2023-03-04T13:51:46.657Z,5.55
